sensor_id;sensor_type;location;lat;lon;timestamp;pressure;altitude;pressure_sealevel;temperature;humidity
2549;BME280;1284;53.520;10.248;2023-03-16T00:02:08;101268.41;;;3.55;84.21
2549;BME280;1284;53.520;10.248;2023-03-16T00:04:33;101254.00;;;3.56;84.31
2549;BME280;1284;53.520;10.248;2023-03-16T00:07:10;101265.47;;;3.71;83.69
2549;BME280;1284;53.520;10.248;2023-03-16T00:09:36;101264.00;;;3.64;83.38
2549;BME280;1284;53.520;10.248;2023-03-16T00:12:07;101265.69;;;3.74;83.77
2549;BME280;1284;53.520;10.248;2023-03-16T00:14:44;101276.03;;;3.76;83.69
2549;BME280;1284;53.520;10.248;2023-03-16T00:17:15;101274.63;;;3.64;84.54
2549;BME280;1284;53.520;10.248;2023-03-16T00:19:54;101282.63;;;3.64;83.97
2549;BME280;1284;53.520;10.248;2023-03-16T00:22:28;101281.06;;;3.63;84.26
2549;BME280;1284;53.520;10.248;2023-03-16T00:24:55;101267.34;;;3.70;83.91
2549;BME280;1284;53.520;10.248;2023-03-16T00:27:22;101279.56;;;3.57;84.46
2549;BME280;1284;53.520;10.248;2023-03-16T00:29:50;101275.63;;;3.68;83.94
2549;BME280;1284;53.520;10.248;2023-03-16T00:32:25;101279.50;;;3.76;83.82
2549;BME280;1284;53.520;10.248;2023-03-16T00:34:51;101282.78;;;3.87;83.55
2549;BME280;1284;53.520;10.248;2023-03-16T00:37:18;101277.75;;;3.85;83.57
2549;BME280;1284;53.520;10.248;2023-03-16T00:39:45;101276.66;;;3.86;84.16
2549;BME280;1284;53.520;10.248;2023-03-16T00:42:14;101278.81;;;3.84;83.72
2549;BME280;1284;53.520;10.248;2023-03-16T00:44:40;101268.16;;;3.84;84.15
2549;BME280;1284;53.520;10.248;2023-03-16T00:47:06;101281.13;;;3.91;83.72
2549;BME280;1284;53.520;10.248;2023-03-16T00:49:35;101279.22;;;3.91;83.63
2549;BME280;1284;53.520;10.248;2023-03-16T00:52:05;101281.97;;;3.73;84.27
2549;BME280;1284;53.520;10.248;2023-03-16T00:54:33;101275.63;;;3.68;84.53
2549;BME280;1284;53.520;10.248;2023-03-16T00:57:00;101279.00;;;3.74;84.84
2549;BME280;1284;53.520;10.248;2023-03-16T00:59:26;101271.44;;;3.81;84.69
2549;BME280;1284;53.520;10.248;2023-03-16T01:01:52;101275.78;;;3.91;83.64
2549;BME280;1284;53.520;10.248;2023-03-16T01:04:18;101283.84;;;3.86;84.54
2549;BME280;1284;53.520;10.248;2023-03-16T01:06:45;101283.34;;;3.84;84.57
2549;BME280;1284;53.520;10.248;2023-03-16T01:09:11;101277.03;;;3.80;85.14
2549;BME280;1284;53.520;10.248;2023-03-16T01:11:36;101286.63;;;3.81;84.81
2549;BME280;1284;53.520;10.248;2023-03-16T01:14:02;101271.44;;;3.81;84.61
2549;BME280;1284;53.520;10.248;2023-03-16T01:16:28;101273.16;;;3.72;85.03
2549;BME280;1284;53.520;10.248;2023-03-16T01:18:53;101270.63;;;3.67;85.06
2549;BME280;1284;53.520;10.248;2023-03-16T01:21:19;101269.03;;;3.80;84.69
2549;BME280;1284;53.520;10.248;2023-03-16T01:23:48;101261.75;;;3.72;84.08
2549;BME280;1284;53.520;10.248;2023-03-16T01:26:13;101265.25;;;3.53;84.69
2549;BME280;1284;53.520;10.248;2023-03-16T01:28:44;101263.66;;;3.52;84.70
2549;BME280;1284;53.520;10.248;2023-03-16T01:31:11;101261.25;;;3.37;85.42
2549;BME280;1284;53.520;10.248;2023-03-16T01:33:39;101263.56;;;3.25;85.95
2549;BME280;1284;53.520;10.248;2023-03-16T01:36:18;101256.44;;;3.07;86.67
2549;BME280;1284;53.520;10.248;2023-03-16T01:39:04;101250.16;;;2.98;87.30
2549;BME280;1284;53.520;10.248;2023-03-16T01:41:37;101249.53;;;3.06;87.36
2549;BME280;1284;53.520;10.248;2023-03-16T01:44:04;101261.00;;;3.20;87.13
2549;BME280;1284;53.520;10.248;2023-03-16T01:46:30;101259.72;;;3.18;86.37
2549;BME280;1284;53.520;10.248;2023-03-16T01:49:10;101262.41;;;2.99;87.00
2549;BME280;1284;53.520;10.248;2023-03-16T01:51:44;101257.88;;;3.00;87.07
2549;BME280;1284;53.520;10.248;2023-03-16T01:59:36;101247.94;;;2.87;87.17
2549;BME280;1284;53.520;10.248;2023-03-16T02:02:03;101254.22;;;2.96;87.27
2549;BME280;1284;53.520;10.248;2023-03-16T02:04:39;101256.16;;;2.90;87.30
2549;BME280;1284;53.520;10.248;2023-03-16T02:07:07;101248.25;;;2.85;87.43
2549;BME280;1284;53.520;10.248;2023-03-16T02:09:39;101256.44;;;2.70;87.41
2549;BME280;1284;53.520;10.248;2023-03-16T02:12:08;101259.41;;;2.68;88.25
2549;BME280;1284;53.520;10.248;2023-03-16T02:14:44;101253.38;;;2.63;88.29
2549;BME280;1284;53.520;10.248;2023-03-16T02:17:11;101258.50;;;2.73;88.36
2549;BME280;1284;53.520;10.248;2023-03-16T02:22:19;101250.19;;;2.80;88.09
2549;BME280;1284;53.520;10.248;2023-03-16T02:24:44;101250.34;;;2.88;88.01
2549;BME280;1284;53.520;10.248;2023-03-16T02:27:18;101258.47;;;2.78;87.80
2549;BME280;1284;53.520;10.248;2023-03-16T02:29:59;101253.69;;;2.75;88.70
2549;BME280;1284;53.520;10.248;2023-03-16T02:32:31;101251.41;;;2.87;88.10
2549;BME280;1284;53.520;10.248;2023-03-16T02:35:00;101248.47;;;2.89;87.98
2549;BME280;1284;53.520;10.248;2023-03-16T02:40:20;101247.16;;;2.67;88.37
2549;BME280;1284;53.520;10.248;2023-03-16T02:45:25;101238.19;;;2.63;88.43
2549;BME280;1284;53.520;10.248;2023-03-16T02:47:54;101240.00;;;2.68;88.24
2549;BME280;1284;53.520;10.248;2023-03-16T02:50:22;101241.28;;;2.89;87.45
2549;BME280;1284;53.520;10.248;2023-03-16T02:52:47;101232.28;;;2.85;87.82
2549;BME280;1284;53.520;10.248;2023-03-16T02:55:14;101226.56;;;2.78;87.65
2549;BME280;1284;53.520;10.248;2023-03-16T02:57:40;101234.44;;;2.83;87.67
2549;BME280;1284;53.520;10.248;2023-03-16T03:00:11;101229.50;;;2.95;87.61
2549;BME280;1284;53.520;10.248;2023-03-16T03:02:43;101232.16;;;2.95;87.29
2549;BME280;1284;53.520;10.248;2023-03-16T03:05:11;101238.06;;;2.92;87.18
2549;BME280;1284;53.520;10.248;2023-03-16T03:07:37;101240.22;;;2.90;87.24
2549;BME280;1284;53.520;10.248;2023-03-16T03:10:05;101227.78;;;2.86;87.48
2549;BME280;1284;53.520;10.248;2023-03-16T03:12:32;101240.22;;;2.90;87.61
2549;BME280;1284;53.520;10.248;2023-03-16T03:14:58;101240.41;;;2.94;87.40
2549;BME280;1284;53.520;10.248;2023-03-16T03:17:23;101239.63;;;2.93;87.09
2549;BME280;1284;53.520;10.248;2023-03-16T03:19:56;101231.66;;;2.93;86.93
2549;BME280;1284;53.520;10.248;2023-03-16T03:22:22;101242.94;;;2.85;87.19
2549;BME280;1284;53.520;10.248;2023-03-16T03:24:47;101245.69;;;2.80;87.37
2549;BME280;1284;53.520;10.248;2023-03-16T03:27:13;101248.53;;;2.84;87.53
2549;BME280;1284;53.520;10.248;2023-03-16T03:29:39;101253.56;;;2.66;87.51
2549;BME280;1284;53.520;10.248;2023-03-16T03:32:05;101256.66;;;2.73;87.42
2549;BME280;1284;53.520;10.248;2023-03-16T03:34:31;101243.88;;;2.75;87.32
2549;BME280;1284;53.520;10.248;2023-03-16T03:36:57;101245.72;;;2.75;87.08
2549;BME280;1284;53.520;10.248;2023-03-16T03:39:24;101244.59;;;2.81;86.74
2549;BME280;1284;53.520;10.248;2023-03-16T03:41:50;101245.59;;;2.66;86.94
2549;BME280;1284;53.520;10.248;2023-03-16T03:44:21;101252.78;;;2.66;87.56
2549;BME280;1284;53.520;10.248;2023-03-16T03:46:47;101243.78;;;2.62;87.11
2549;BME280;1284;53.520;10.248;2023-03-16T03:49:13;101248.31;;;2.61;87.26
2549;BME280;1284;53.520;10.248;2023-03-16T03:51:39;101243.78;;;2.62;86.90
2549;BME280;1284;53.520;10.248;2023-03-16T03:54:10;101253.88;;;2.65;87.70
2549;BME280;1284;53.520;10.248;2023-03-16T03:56:46;101244.47;;;2.72;86.69
2549;BME280;1284;53.520;10.248;2023-03-16T03:59:14;101249.09;;;2.62;87.21
2549;BME280;1284;53.520;10.248;2023-03-16T04:02:00;101254.63;;;2.47;87.19
2549;BME280;1284;53.520;10.248;2023-03-16T04:04:36;101252.19;;;2.50;87.70
2549;BME280;1284;53.520;10.248;2023-03-16T04:07:02;101251.91;;;2.52;87.69
2549;BME280;1284;53.520;10.248;2023-03-16T04:09:28;101245.44;;;2.58;87.85
2549;BME280;1284;53.520;10.248;2023-03-16T04:11:54;101248.31;;;2.43;87.81
2549;BME280;1284;53.520;10.248;2023-03-16T04:14:22;101247.81;;;2.41;87.83
2549;BME280;1284;53.520;10.248;2023-03-16T04:16:48;101244.59;;;2.44;87.69
2549;BME280;1284;53.520;10.248;2023-03-16T04:19:13;101248.47;;;2.51;87.78
2549;BME280;1284;53.520;10.248;2023-03-16T04:21:39;101258.44;;;2.41;87.43
2549;BME280;1284;53.520;10.248;2023-03-16T04:24:05;101251.13;;;2.51;87.87
2549;BME280;1284;53.520;10.248;2023-03-16T04:26:34;101252.19;;;2.50;86.99
2549;BME280;1284;53.520;10.248;2023-03-16T04:29:01;101252.56;;;2.44;87.60
2549;BME280;1284;53.520;10.248;2023-03-16T04:31:28;101245.13;;;2.41;87.34
2549;BME280;1284;53.520;10.248;2023-03-16T04:33:54;101244.16;;;2.55;86.90
2549;BME280;1284;53.520;10.248;2023-03-16T04:36:20;101235.75;;;2.48;87.20
2549;BME280;1284;53.520;10.248;2023-03-16T04:38:49;101236.44;;;2.54;86.97
2549;BME280;1284;53.520;10.248;2023-03-16T04:41:16;101244.28;;;2.64;85.86
2549;BME280;1284;53.520;10.248;2023-03-16T04:43:50;101244.16;;;2.74;85.48
2549;BME280;1284;53.520;10.248;2023-03-16T04:46:19;101234.03;;;2.76;85.26
2549;BME280;1284;53.520;10.248;2023-03-16T04:48:44;101246.22;;;2.77;85.44
2549;BME280;1284;53.520;10.248;2023-03-16T04:51:10;101243.06;;;2.75;85.33
2549;BME280;1284;53.520;10.248;2023-03-16T04:53:39;101241.34;;;2.84;85.44
2549;BME280;1284;53.520;10.248;2023-03-16T04:56:13;101243.66;;;2.72;85.00
2549;BME280;1284;53.520;10.248;2023-03-16T04:58:47;101248.81;;;2.63;85.46
2549;BME280;1284;53.520;10.248;2023-03-16T05:04:01;101241.78;;;2.54;85.52
2549;BME280;1284;53.520;10.248;2023-03-16T05:06:30;101245.81;;;2.70;85.34
2549;BME280;1284;53.520;10.248;2023-03-16T05:08:59;101242.31;;;2.74;84.38
2549;BME280;1284;53.520;10.248;2023-03-16T05:11:25;101243.22;;;2.65;84.35
2549;BME280;1284;53.520;10.248;2023-03-16T05:13:56;101232.00;;;2.68;84.95
2549;BME280;1284;53.520;10.248;2023-03-16T05:16:22;101242.00;;;2.57;84.88
2549;BME280;1284;53.520;10.248;2023-03-16T05:18:49;101229.16;;;2.64;84.49
2549;BME280;1284;53.520;10.248;2023-03-16T05:21:14;101233.75;;;2.78;84.65
2549;BME280;1284;53.520;10.248;2023-03-16T05:23:56;101229.06;;;2.88;83.59
2549;BME280;1284;53.520;10.248;2023-03-16T05:26:22;101222.44;;;2.86;83.82
2549;BME280;1284;53.520;10.248;2023-03-16T05:28:50;101224.25;;;2.71;83.67
2549;BME280;1284;53.520;10.248;2023-03-16T05:31:17;101234.00;;;2.95;83.39
2549;BME280;1284;53.520;10.248;2023-03-16T05:33:48;101230.59;;;2.94;83.16
2549;BME280;1284;53.520;10.248;2023-03-16T05:36:17;101221.59;;;2.71;82.61
2549;BME280;1284;53.520;10.248;2023-03-16T05:38:45;101218.44;;;2.69;82.88
2549;BME280;1284;53.520;10.248;2023-03-16T05:41:20;101233.59;;;2.88;83.09
2549;BME280;1284;53.520;10.248;2023-03-16T05:43:53;101243.19;;;3.02;82.36
2549;BME280;1284;53.520;10.248;2023-03-16T05:46:20;101251.03;;;3.12;81.54
2549;BME280;1284;53.520;10.248;2023-03-16T05:48:47;101260.03;;;2.98;81.21
2549;BME280;1284;53.520;10.248;2023-03-16T05:51:14;101260.31;;;3.15;80.55
2549;BME280;1284;53.520;10.248;2023-03-16T05:56:14;101264.28;;;2.99;81.19
2549;BME280;1284;53.520;10.248;2023-03-16T05:58:43;101266.72;;;2.77;82.01
2549;BME280;1284;53.520;10.248;2023-03-16T06:01:09;101260.09;;;2.93;81.61
2549;BME280;1284;53.520;10.248;2023-03-16T06:03:37;101257.72;;;2.91;80.89
2549;BME280;1284;53.520;10.248;2023-03-16T06:06:06;101262.97;;;3.15;81.22
2549;BME280;1284;53.520;10.248;2023-03-16T06:08:39;101263.56;;;3.25;80.96
2549;BME280;1284;53.520;10.248;2023-03-16T06:11:08;101263.03;;;3.28;80.20
2549;BME280;1284;53.520;10.248;2023-03-16T06:13:35;101263.31;;;3.27;79.77
2549;BME280;1284;53.520;10.248;2023-03-16T06:16:00;101264.03;;;3.32;80.22
2549;BME280;1284;53.520;10.248;2023-03-16T06:18:26;101267.91;;;3.53;79.72
2549;BME280;1284;53.520;10.248;2023-03-16T06:20:52;101269.41;;;3.59;79.48
2549;BME280;1284;53.520;10.248;2023-03-16T06:23:19;101277.06;;;3.47;79.08
2549;BME280;1284;53.520;10.248;2023-03-16T06:25:47;101272.16;;;3.54;79.09
2549;BME280;1284;53.520;10.248;2023-03-16T06:28:13;101268.03;;;3.62;78.97
2549;BME280;1284;53.520;10.248;2023-03-16T06:30:39;101260.16;;;3.71;78.09
2549;BME280;1284;53.520;10.248;2023-03-16T06:33:05;101264.81;;;3.79;77.95
2549;BME280;1284;53.520;10.248;2023-03-16T06:35:31;101262.44;;;3.77;77.54
2549;BME280;1284;53.520;10.248;2023-03-16T06:38:17;101266.38;;;3.80;78.08
2549;BME280;1284;53.520;10.248;2023-03-16T06:40:55;101280.41;;;3.85;78.06
2549;BME280;1284;53.520;10.248;2023-03-16T06:43:22;101280.63;;;3.89;77.20
2549;BME280;1284;53.520;10.248;2023-03-16T06:45:48;101275.56;;;4.01;77.17
2549;BME280;1284;53.520;10.248;2023-03-16T06:48:14;101288.22;;;4.09;76.66
2549;BME280;1284;53.520;10.248;2023-03-16T06:50:39;101286.66;;;4.21;76.68
2549;BME280;1284;53.520;10.248;2023-03-16T06:53:05;101296.63;;;4.16;76.00
2549;BME280;1284;53.520;10.248;2023-03-16T06:55:32;101290.59;;;4.24;75.51
2549;BME280;1284;53.520;10.248;2023-03-16T06:57:59;101282.63;;;4.24;75.78
2549;BME280;1284;53.520;10.248;2023-03-16T07:00:25;101281.91;;;4.32;75.53
2549;BME280;1284;53.520;10.248;2023-03-16T07:02:51;101287.63;;;4.25;75.52
2549;BME280;1284;53.520;10.248;2023-03-16T07:05:17;101300.66;;;4.40;75.62
2549;BME280;1284;53.520;10.248;2023-03-16T07:07:44;101287.91;;;4.51;75.15
2549;BME280;1284;53.520;10.248;2023-03-16T07:10:15;101282.88;;;4.36;75.26
2549;BME280;1284;53.520;10.248;2023-03-16T07:12:42;101284.19;;;4.25;75.28
2549;BME280;1284;53.520;10.248;2023-03-16T07:15:08;101289.81;;;4.23;74.95
2549;BME280;1284;53.520;10.248;2023-03-16T07:17:34;101287.72;;;4.34;75.14
2549;BME280;1284;53.520;10.248;2023-03-16T07:20:03;101293.63;;;4.58;74.98
2549;BME280;1284;53.520;10.248;2023-03-16T07:22:31;101295.44;;;4.49;75.10
2549;BME280;1284;53.520;10.248;2023-03-16T07:24:58;101298.88;;;4.49;74.57
2549;BME280;1284;53.520;10.248;2023-03-16T07:27:25;101305.66;;;4.69;73.91
2549;BME280;1284;53.520;10.248;2023-03-16T07:29:52;101299.06;;;4.53;73.65
2549;BME280;1284;53.520;10.248;2023-03-16T07:32:17;101300.94;;;4.66;73.89
2549;BME280;1284;53.520;10.248;2023-03-16T07:37:31;101307.78;;;4.94;73.14
2549;BME280;1284;53.520;10.248;2023-03-16T07:40:00;101308.03;;;4.71;73.30
2549;BME280;1284;53.520;10.248;2023-03-16T07:42:26;101304.41;;;5.02;72.40
2549;BME280;1284;53.520;10.248;2023-03-16T07:45:04;101304.84;;;5.18;70.46
2549;BME280;1284;53.520;10.248;2023-03-16T07:47:30;101303.41;;;4.98;71.62
2549;BME280;1284;53.520;10.248;2023-03-16T07:49:59;101302.78;;;5.37;71.19
2549;BME280;1284;53.520;10.248;2023-03-16T07:52:26;101311.47;;;5.65;69.25
2549;BME280;1284;53.520;10.248;2023-03-16T07:54:53;101315.34;;;5.59;68.54
2549;BME280;1284;53.520;10.248;2023-03-16T08:00:08;101315.59;;;5.26;67.69
2549;BME280;1284;53.520;10.248;2023-03-16T08:02:41;101308.31;;;5.40;67.99
2549;BME280;1284;53.520;10.248;2023-03-16T08:05:09;101310.00;;;5.59;68.49
2549;BME280;1284;53.520;10.248;2023-03-16T08:07:36;101317.47;;;5.70;66.72
2549;BME280;1284;53.520;10.248;2023-03-16T08:10:10;101310.38;;;5.43;67.52
2549;BME280;1284;53.520;10.248;2023-03-16T08:12:42;101320.81;;;5.53;67.83
2549;BME280;1284;53.520;10.248;2023-03-16T08:15:09;101312.19;;;5.79;66.57
2549;BME280;1284;53.520;10.248;2023-03-16T08:17:35;101304.50;;;6.56;66.28
2549;BME280;1284;53.520;10.248;2023-03-16T08:20:03;101312.75;;;6.85;63.60
2549;BME280;1284;53.520;10.248;2023-03-16T08:22:35;101315.88;;;7.12;62.13
2549;BME280;1284;53.520;10.248;2023-03-16T08:25:02;101322.22;;;7.34;61.41
2549;BME280;1284;53.520;10.248;2023-03-16T08:27:28;101310.06;;;6.85;60.84
2549;BME280;1284;53.520;10.248;2023-03-16T08:29:57;101316.53;;;6.92;62.01
2549;BME280;1284;53.520;10.248;2023-03-16T08:32:29;101322.50;;;7.41;60.07
2549;BME280;1284;53.520;10.248;2023-03-16T08:34:55;101318.88;;;7.37;59.25
2549;BME280;1284;53.520;10.248;2023-03-16T08:37:22;101314.25;;;7.80;58.23
2549;BME280;1284;53.520;10.248;2023-03-16T08:39:51;101316.16;;;7.71;58.70
2549;BME280;1284;53.520;10.248;2023-03-16T08:42:17;101317.88;;;7.75;57.59
2549;BME280;1284;53.520;10.248;2023-03-16T08:44:49;101312.97;;;7.86;57.32
2549;BME280;1284;53.520;10.248;2023-03-16T08:47:15;101313.66;;;7.66;58.61
2549;BME280;1284;53.520;10.248;2023-03-16T08:49:42;101311.34;;;8.02;57.80
2549;BME280;1284;53.520;10.248;2023-03-16T08:52:12;101317.91;;;8.59;57.24
2549;BME280;1284;53.520;10.248;2023-03-16T08:54:38;101317.34;;;7.99;57.08
2549;BME280;1284;53.520;10.248;2023-03-16T08:57:04;101315.13;;;8.47;56.56
2549;BME280;1284;53.520;10.248;2023-03-16T08:59:29;101308.38;;;8.41;56.80
2549;BME280;1284;53.520;10.248;2023-03-16T09:01:55;101315.34;;;8.63;56.51
2549;BME280;1284;53.520;10.248;2023-03-16T09:04:20;101307.16;;;8.21;57.36
2549;BME280;1284;53.520;10.248;2023-03-16T09:06:47;101316.66;;;8.57;57.15
2549;BME280;1284;53.520;10.248;2023-03-16T09:09:15;101309.41;;;8.98;56.62
2549;BME280;1284;53.520;10.248;2023-03-16T09:11:40;101318.13;;;9.37;54.90
2549;BME280;1284;53.520;10.248;2023-03-16T09:14:06;101307.44;;;9.61;53.66
2549;BME280;1284;53.520;10.248;2023-03-16T09:16:31;101305.59;;;9.85;53.13
2549;BME280;1284;53.520;10.248;2023-03-16T09:18:57;101308.69;;;9.63;52.83
2549;BME280;1284;53.520;10.248;2023-03-16T09:23:48;101303.91;;;9.69;54.15
2549;BME280;1284;53.520;10.248;2023-03-16T09:26:15;101301.66;;;9.71;53.46
2549;BME280;1284;53.520;10.248;2023-03-16T09:28:41;101307.59;;;10.45;52.23
2549;BME280;1284;53.520;10.248;2023-03-16T09:31:07;101299.75;;;10.28;52.03
2549;BME280;1284;53.520;10.248;2023-03-16T09:33:33;101300.19;;;10.42;51.37
2549;BME280;1284;53.520;10.248;2023-03-16T09:35:59;101297.63;;;10.22;51.05
2549;BME280;1284;53.520;10.248;2023-03-16T09:38:26;101300.44;;;10.37;50.30
2549;BME280;1284;53.520;10.248;2023-03-16T09:40:58;101285.34;;;10.72;50.07
2549;BME280;1284;53.520;10.248;2023-03-16T09:46:24;101290.91;;;11.31;49.23
2549;BME280;1284;53.520;10.248;2023-03-16T09:48:53;101288.34;;;11.50;50.06
2549;BME280;1284;53.520;10.248;2023-03-16T09:51:59;101275.94;;;11.06;48.60
2549;BME280;1284;53.520;10.248;2023-03-16T09:54:36;101278.00;;;10.97;49.84
2549;BME280;1284;53.520;10.248;2023-03-16T09:57:42;101275.56;;;11.47;48.47
2549;BME280;1284;53.520;10.248;2023-03-16T10:00:50;101280.75;;;11.13;47.95
2549;BME280;1284;53.520;10.248;2023-03-16T10:12:59;101275.06;;;11.30;47.54
2549;BME280;1284;53.520;10.248;2023-03-16T10:15:28;101264.16;;;11.54;47.06
2549;BME280;1284;53.520;10.248;2023-03-16T10:18:15;101265.91;;;11.19;47.57
2549;BME280;1284;53.520;10.248;2023-03-16T10:20:43;101263.59;;;11.05;47.95
2549;BME280;1284;53.520;10.248;2023-03-16T10:23:21;101264.56;;;11.40;47.67
2549;BME280;1284;53.520;10.248;2023-03-16T10:25:57;101264.16;;;11.54;47.46
2549;BME280;1284;53.520;10.248;2023-03-16T10:28:24;101261.97;;;10.76;47.80
2549;BME280;1284;53.520;10.248;2023-03-16T10:30:52;101261.03;;;10.97;47.82
2549;BME280;1284;53.520;10.248;2023-03-16T10:33:24;101259.63;;;11.15;47.60
2549;BME280;1284;53.520;10.248;2023-03-16T10:38:45;101260.00;;;11.29;46.79
2549;BME280;1284;53.520;10.248;2023-03-16T10:46:45;101239.31;;;11.76;45.72
2549;BME280;1284;53.520;10.248;2023-03-16T10:49:37;101255.94;;;11.78;44.22
2549;BME280;1284;53.520;10.248;2023-03-16T10:54:50;101240.34;;;11.87;44.24
2549;BME280;1284;53.520;10.248;2023-03-16T10:57:31;101243.06;;;12.03;43.11
2549;BME280;1284;53.520;10.248;2023-03-16T11:00:05;101237.31;;;12.04;42.88
2549;BME280;1284;53.520;10.248;2023-03-16T11:02:34;101222.91;;;12.16;43.26
2549;BME280;1284;53.520;10.248;2023-03-16T11:07:50;101230.34;;;11.72;40.71
2549;BME280;1284;53.520;10.248;2023-03-16T11:13:00;101231.16;;;11.72;38.71
2549;BME280;1284;53.520;10.248;2023-03-16T11:15:26;101222.53;;;11.67;37.67
2549;BME280;1284;53.520;10.248;2023-03-16T11:17:57;101225.31;;;11.70;37.78
2549;BME280;1284;53.520;10.248;2023-03-16T11:20:26;101212.13;;;11.53;37.31
2549;BME280;1284;53.520;10.248;2023-03-16T11:22:53;101219.59;;;11.60;37.55
2549;BME280;1284;53.520;10.248;2023-03-16T11:25:32;101200.59;;;11.68;37.08
2549;BME280;1284;53.520;10.248;2023-03-16T11:28:31;101201.28;;;11.81;37.04
2549;BME280;1284;53.520;10.248;2023-03-16T11:31:17;101194.03;;;11.85;37.07
2549;BME280;1284;53.520;10.248;2023-03-16T11:33:45;101203.72;;;12.36;37.24
2549;BME280;1284;53.520;10.248;2023-03-16T11:36:32;101198.44;;;12.24;35.09
2549;BME280;1284;53.520;10.248;2023-03-16T11:39:20;101180.94;;;12.18;34.83
2549;BME280;1284;53.520;10.248;2023-03-16T11:45:05;101190.97;;;12.72;34.48
2549;BME280;1284;53.520;10.248;2023-03-16T11:55:54;101183.13;;;12.47;32.79
2549;BME280;1284;53.520;10.248;2023-03-16T12:01:40;101173.09;;;12.48;32.02
2549;BME280;1284;53.520;10.248;2023-03-16T12:04:23;101164.09;;;12.59;32.87
2549;BME280;1284;53.520;10.248;2023-03-16T12:12:28;101154.66;;;12.92;31.59
2549;BME280;1284;53.520;10.248;2023-03-16T12:15:17;101144.31;;;12.36;33.21
2549;BME280;1284;53.520;10.248;2023-03-16T12:17:45;101128.63;;;12.84;32.32
2549;BME280;1284;53.520;10.248;2023-03-16T12:20:18;101157.78;;;12.94;32.39
2549;BME280;1284;53.520;10.248;2023-03-16T12:22:50;101135.63;;;12.65;31.51
2549;BME280;1284;53.520;10.248;2023-03-16T12:25:22;101136.41;;;12.85;32.19
2549;BME280;1284;53.520;10.248;2023-03-16T12:27:58;101140.53;;;12.79;33.00
2549;BME280;1284;53.520;10.248;2023-03-16T12:38:24;101128.44;;;13.86;30.87
2549;BME280;1284;53.520;10.248;2023-03-16T12:41:31;101112.56;;;13.10;31.40
2549;BME280;1284;53.520;10.248;2023-03-16T12:44:34;101109.56;;;12.96;31.58
2549;BME280;1284;53.520;10.248;2023-03-16T12:47:28;101108.16;;;12.83;31.77
2549;BME280;1284;53.520;10.248;2023-03-16T12:50:09;101104.63;;;12.59;32.10
2549;BME280;1284;53.520;10.248;2023-03-16T12:52:46;101091.25;;;12.66;32.49
2549;BME280;1284;53.520;10.248;2023-03-16T12:57:42;101092.06;;;12.90;31.52
2549;BME280;1284;53.520;10.248;2023-03-16T13:00:09;101086.94;;;13.04;32.30
2549;BME280;1284;53.520;10.248;2023-03-16T13:02:38;101075.59;;;13.43;32.30
2549;BME280;1284;53.520;10.248;2023-03-16T13:05:15;101079.31;;;13.58;31.59
2549;BME280;1284;53.520;10.248;2023-03-16T13:07:47;101075.38;;;13.52;32.49
2549;BME280;1284;53.520;10.248;2023-03-16T13:10:14;101064.75;;;13.66;32.33
2549;BME280;1284;53.520;10.248;2023-03-16T13:12:41;101064.22;;;13.83;31.69
2549;BME280;1284;53.520;10.248;2023-03-16T13:17:41;101072.75;;;13.33;31.51
2549;BME280;1284;53.520;10.248;2023-03-16T13:23:06;101062.16;;;13.24;31.95
2549;BME280;1284;53.520;10.248;2023-03-16T13:25:40;101058.34;;;12.84;31.31
2549;BME280;1284;53.520;10.248;2023-03-16T13:28:12;101040.00;;;12.93;31.47
2549;BME280;1284;53.520;10.248;2023-03-16T13:30:44;101034.66;;;12.74;30.65
2549;BME280;1284;53.520;10.248;2023-03-16T13:33:23;101039.56;;;12.91;31.01
2549;BME280;1284;53.520;10.248;2023-03-16T13:35:52;101038.97;;;13.23;31.03
2549;BME280;1284;53.520;10.248;2023-03-16T13:38:20;101047.94;;;13.05;30.74
2549;BME280;1284;53.520;10.248;2023-03-16T13:40:55;101050.78;;;13.12;30.35
2549;BME280;1284;53.520;10.248;2023-03-16T13:43:23;101040.16;;;12.81;30.62
2549;BME280;1284;53.520;10.248;2023-03-16T13:45:49;101039.97;;;12.70;30.74
2549;BME280;1284;53.520;10.248;2023-03-16T13:48:16;101033.69;;;12.43;30.40
2549;BME280;1284;53.520;10.248;2023-03-16T13:50:42;101037.53;;;12.42;30.36
2549;BME280;1284;53.520;10.248;2023-03-16T13:53:30;101026.09;;;12.30;30.60
2549;BME280;1284;53.520;10.248;2023-03-16T13:55:58;101015.56;;;12.44;32.18
2549;BME280;1284;53.520;10.248;2023-03-16T13:58:35;101019.81;;;12.45;32.29
2549;BME280;1284;53.520;10.248;2023-03-16T14:01:04;101014.88;;;12.69;31.95
2549;BME280;1284;53.520;10.248;2023-03-16T14:03:38;101004.06;;;12.92;31.95
2549;BME280;1284;53.520;10.248;2023-03-16T14:06:05;101022.00;;;12.58;32.44
2549;BME280;1284;53.520;10.248;2023-03-16T14:08:31;101010.06;;;12.59;32.51
2549;BME280;1284;53.520;10.248;2023-03-16T14:10:59;100998.81;;;12.35;32.38
2549;BME280;1284;53.520;10.248;2023-03-16T14:16:10;101002.72;;;12.18;32.26
2549;BME280;1284;53.520;10.248;2023-03-16T14:18:42;100998.75;;;12.12;33.08
2549;BME280;1284;53.520;10.248;2023-03-16T14:21:13;100996.13;;;12.16;32.74
2549;BME280;1284;53.520;10.248;2023-03-16T14:23:44;100994.28;;;11.82;32.78
2549;BME280;1284;53.520;10.248;2023-03-16T14:26:12;101001.59;;;12.00;33.30
2549;BME280;1284;53.520;10.248;2023-03-16T14:28:38;100994.75;;;12.25;32.62
2549;BME280;1284;53.520;10.248;2023-03-16T14:31:12;100990.22;;;12.10;31.47
2549;BME280;1284;53.520;10.248;2023-03-16T14:33:43;100979.16;;;11.77;32.47
2549;BME280;1284;53.520;10.248;2023-03-16T14:36:18;100979.38;;;11.88;33.20
2549;BME280;1284;53.520;10.248;2023-03-16T14:38:45;100967.00;;;11.67;32.30
2549;BME280;1284;53.520;10.248;2023-03-16T14:41:29;100963.91;;;11.50;32.84
2549;BME280;1284;53.520;10.248;2023-03-16T14:43:59;100968.53;;;11.49;33.20
2549;BME280;1284;53.520;10.248;2023-03-16T14:46:31;100962.03;;;11.69;33.60
2549;BME280;1284;53.520;10.248;2023-03-16T14:52:05;100958.03;;;11.63;33.29
2549;BME280;1284;53.520;10.248;2023-03-16T14:54:32;100954.94;;;11.46;33.95
2549;BME280;1284;53.520;10.248;2023-03-16T14:57:03;100936.34;;;11.41;34.29
2549;BME280;1284;53.520;10.248;2023-03-16T14:59:31;100936.66;;;11.55;35.24
2549;BME280;1284;53.520;10.248;2023-03-16T15:01:57;100935.47;;;11.71;34.13